JAF1BH EBBR-GMAD
Flight info
| Callsign | JAF1BH |
|---|---|
| Flight time | N/A |
| Altitude | 33000 |
| Route | CIV N872 LESDO DCT KOVIN DCT DUCRA/N0443F370 UM728 RESMI UN857 DISAK DCT ARKIP DCT ARNAV DCT LMG/N0443F390 DCT UVELI DCT OSMOB DCT ARVID DCT PPN DCT NOLSA N857 BAN DCT PINAR DCT CJN DCT INTAX DCT NASOS DCT ANZAN DCT BLN DCT MGA DCT PIMOS DCT GALTO UN869 PELAX UB11 MAK UG850 OLOMA |
| Aircraft | B38M/M-SDE1FGHILORVWXY/HB1 |
Departure
| Time | N/A |
|---|---|
| Airport | Brussels Airport (EBBR) |
Arrival
| Time | 2026-04-22 18:25 |
|---|---|
| Airport | Al Massira Airport (GMAD) |
| Time | Latitude | Longitude | Altitude | Speed | Heading |
|---|---|---|---|---|---|
| 2026-04-22 17:54 | 30.91358 | -8.80484 | 15676 ft | 291 kts | 219° |
| 2026-04-22 17:54 | 30.89829 | -8.82008 | 15350 ft | 288 kts | 219° |
| 2026-04-22 17:54 | 30.88300 | -8.83508 | 15013 ft | 287 kts | 219° |
| 2026-04-22 17:55 | 30.87290 | -8.84497 | 14798 ft | 286 kts | 219° |
| 2026-04-22 17:55 | 30.85270 | -8.86484 | 14369 ft | 283 kts | 219° |
| 2026-04-22 17:55 | 30.83770 | -8.87949 | 14044 ft | 281 kts | 219° |
| 2026-04-22 17:55 | 30.82284 | -8.89401 | 13761 ft | 278 kts | 218° |
| 2026-04-22 17:56 | 30.80866 | -8.90916 | 13399 ft | 277 kts | 224° |
| 2026-04-22 17:56 | 30.79449 | -8.92478 | 12719 ft | 285 kts | 218° |
| 2026-04-22 17:56 | 30.77824 | -8.93865 | 12127 ft | 292 kts | 210° |
| 2026-04-22 17:56 | 30.76105 | -8.95002 | 12030 ft | 282 kts | 206° |
| 2026-04-22 17:57 | 30.74403 | -8.96005 | 12091 ft | 267 kts | 205° |
| 2026-04-22 17:57 | 30.72747 | -8.96935 | 11895 ft | 263 kts | 200° |
| 2026-04-22 17:57 | 30.70992 | -8.97587 | 11641 ft | 269 kts | 195° |
| 2026-04-22 17:57 | 30.69158 | -8.98190 | 11070 ft | 278 kts | 194° |
| 2026-04-22 17:58 | 30.67266 | -8.98744 | 10577 ft | 284 kts | 193° |
| 2026-04-22 17:58 | 30.65326 | -8.99307 | 10027 ft | 292 kts | 193° |
| 2026-04-22 17:58 | 30.63324 | -8.99889 | 9394 ft | 300 kts | 193° |
| 2026-04-22 17:58 | 30.61272 | -9.00466 | 8815 ft | 306 kts | 193° |
| 2026-04-22 17:59 | 30.59195 | -9.01046 | 8366 ft | 306 kts | 192° |
| 2026-04-22 17:59 | 30.57139 | -9.01620 | 8027 ft | 303 kts | 193° |
| 2026-04-22 17:59 | 30.55101 | -9.02183 | 7699 ft | 300 kts | 193° |
| 2026-04-22 17:59 | 30.53075 | -9.02733 | 7349 ft | 297 kts | 192° |
| 2026-04-22 18:00 | 30.51749 | -9.03094 | 7134 ft | 295 kts | 193° |
| 2026-04-22 18:00 | 30.49084 | -9.03804 | 6668 ft | 292 kts | 193° |
| 2026-04-22 18:00 | 30.47105 | -9.04325 | 6331 ft | 290 kts | 193° |
| 2026-04-22 18:00 | 30.45138 | -9.04834 | 5987 ft | 286 kts | 193° |
| 2026-04-22 18:01 | 30.43240 | -9.05365 | 5625 ft | 275 kts | 198° |
| 2026-04-22 18:01 | 30.41449 | -9.06014 | 5290 ft | 265 kts | 198° |
| 2026-04-22 18:01 | 30.39718 | -9.06631 | 4979 ft | 255 kts | 199° |
| 2026-04-22 18:01 | 30.38025 | -9.07225 | 4872 ft | 257 kts | 199° |
| 2026-04-22 18:02 | 30.36293 | -9.07824 | 4848 ft | 260 kts | 198° |
| 2026-04-22 18:02 | 30.34630 | -9.08394 | 4900 ft | 236 kts | 198° |
| 2026-04-22 18:02 | 30.33223 | -9.09096 | 4915 ft | 207 kts | 218° |
| 2026-04-22 18:02 | 30.32383 | -9.10251 | 4892 ft | 178 kts | 242° |
| 2026-04-22 18:03 | 30.31999 | -9.11592 | 4811 ft | 172 kts | 255° |
| 2026-04-22 18:03 | 30.31804 | -9.12926 | 4584 ft | 169 kts | 262° |
| 2026-04-22 18:03 | 30.31714 | -9.14275 | 4379 ft | 167 kts | 265° |
| 2026-04-22 18:03 | 30.31687 | -9.15612 | 4171 ft | 167 kts | 268° |
| 2026-04-22 18:04 | 30.31691 | -9.16964 | 3962 ft | 169 kts | 269° |
| 2026-04-22 18:04 | 30.31715 | -9.18316 | 3750 ft | 168 kts | 270° |
| 2026-04-22 18:04 | 30.31744 | -9.19658 | 3553 ft | 166 kts | 270° |
| 2026-04-22 18:04 | 30.31775 | -9.20979 | 3331 ft | 163 kts | 270° |
| 2026-04-22 18:05 | 30.31806 | -9.22268 | 3138 ft | 158 kts | 270° |
| 2026-04-22 18:05 | 30.31836 | -9.23538 | 2931 ft | 158 kts | 270° |
| 2026-04-22 18:05 | 30.31866 | -9.24807 | 2698 ft | 157 kts | 270° |
| 2026-04-22 18:05 | 30.31898 | -9.26065 | 2515 ft | 156 kts | 269° |
| 2026-04-22 18:06 | 30.31927 | -9.27313 | 2308 ft | 155 kts | 268° |
| 2026-04-22 18:06 | 30.31954 | -9.28554 | 2075 ft | 154 kts | 269° |
| 2026-04-22 18:06 | 30.31985 | -9.29797 | 1906 ft | 153 kts | 269° |
| 2026-04-22 18:06 | 30.32025 | -9.30977 | 1749 ft | 138 kts | 266° |
| 2026-04-22 18:07 | 30.32044 | -9.31700 | 1596 ft | 128 kts | 265° |
| 2026-04-22 18:07 | 30.32070 | -9.33015 | 1366 ft | 122 kts | 267° |
| 2026-04-22 18:07 | 30.32093 | -9.33996 | 1200 ft | 121 kts | 266° |
| 2026-04-22 18:07 | 30.32116 | -9.34966 | 1059 ft | 121 kts | 266° |
| 2026-04-22 18:08 | 30.32136 | -9.35941 | 884 ft | 122 kts | 267° |
| 2026-04-22 18:08 | 30.32154 | -9.36941 | 732 ft | 126 kts | 266° |
| 2026-04-22 18:08 | 30.32174 | -9.37956 | 554 ft | 125 kts | 272° |
| 2026-04-22 18:08 | 30.32249 | -9.38950 | 427 ft | 126 kts | 265° |
| 2026-04-22 18:09 | 30.32250 | -9.39999 | 1102 ft | 129 kts | 268° |
| 2026-04-22 18:09 | 30.32294 | -9.41039 | 1974 ft | 131 kts | 267° |
| 2026-04-22 18:09 | 30.32302 | -9.42143 | 2575 ft | 145 kts | 267° |
| 2026-04-22 18:09 | 30.32295 | -9.43294 | 2895 ft | 143 kts | 266° |
| 2026-04-22 18:10 | 30.32272 | -9.44425 | 3648 ft | 142 kts | 279° |
| 2026-04-22 18:10 | 30.32440 | -9.45591 | 4212 ft | 156 kts | 272° |
| 2026-04-22 18:10 | 30.32612 | -9.46845 | 4974 ft | 159 kts | 282° |
| 2026-04-22 18:10 | 30.33145 | -9.48007 | 5652 ft | 172 kts | 300° |
| 2026-04-22 18:11 | 30.33973 | -9.49138 | 6081 ft | 195 kts | 311° |
| 2026-04-22 18:11 | 30.35151 | -9.49927 | 6764 ft | 196 kts | 346° |
| 2026-04-22 18:11 | 30.36453 | -9.49883 | 7576 ft | 189 kts | 12° |
| 2026-04-22 18:11 | 30.37811 | -9.49508 | 7886 ft | 217 kts | 14° |
| 2026-04-22 18:12 | 30.39431 | -9.49021 | 7934 ft | 264 kts | 15° |
| 2026-04-22 18:12 | 30.41330 | -9.48456 | 8190 ft | 294 kts | 14° |
| 2026-04-22 18:12 | 30.42698 | -9.48123 | 8661 ft | 300 kts | 15° |
| 2026-04-22 18:12 | 30.44838 | -9.46252 | 10071 ft | 300 kts | 60° |
| 2026-04-22 18:13 | 30.45577 | -9.43919 | 10160 ft | 329 kts | 82° |
| 2026-04-22 18:13 | 30.45623 | -9.41120 | 10105 ft | 349 kts | 95° |
| 2026-04-22 18:13 | 30.45525 | -9.38266 | 10225 ft | 359 kts | 96° |
| 2026-04-22 18:13 | 30.45450 | -9.35453 | 9556 ft | 346 kts | 94° |
| 2026-04-22 18:14 | 30.45425 | -9.32644 | 8404 ft | 350 kts | 92° |
| 2026-04-22 18:14 | 30.45488 | -9.29819 | 7342 ft | 355 kts | 90° |
| 2026-04-22 18:14 | 30.45595 | -9.27056 | 6974 ft | 335 kts | 91° |
| 2026-04-22 18:14 | 30.45705 | -9.24368 | 6107 ft | 334 kts | 91° |
| 2026-04-22 18:15 | 30.45812 | -9.21672 | 5176 ft | 335 kts | 89° |
| 2026-04-22 18:15 | 30.45926 | -9.19026 | 4793 ft | 319 kts | 88° |
| 2026-04-22 18:15 | 30.46039 | -9.16545 | 4620 ft | 297 kts | 86° |
| 2026-04-22 18:15 | 30.46164 | -9.14218 | 4370 ft | 281 kts | 92° |
| 2026-04-22 18:16 | 30.45827 | -9.12079 | 4126 ft | 265 kts | 112° |
| 2026-04-22 18:16 | 30.44948 | -9.10279 | 3800 ft | 254 kts | 130° |
| 2026-04-22 18:16 | 30.43769 | -9.08815 | 3601 ft | 241 kts | 141° |
| 2026-04-22 18:16 | 30.42315 | -9.07916 | 3568 ft | 238 kts | 165° |
| 2026-04-22 18:17 | 30.40698 | -9.07693 | 3448 ft | 233 kts | 182° |
| 2026-04-22 18:17 | 30.39085 | -9.07876 | 3395 ft | 234 kts | 192° |
| 2026-04-22 18:17 | 30.37539 | -9.08506 | 3027 ft | 234 kts | 209° |
| 2026-04-22 18:17 | 30.36209 | -9.09493 | 3187 ft | 221 kts | 219° |
| 2026-04-22 18:18 | 30.35095 | -9.10627 | 3167 ft | 206 kts | 225° |
| 2026-04-22 18:18 | 30.34199 | -9.11904 | 2763 ft | 209 kts | 240° |
| 2026-04-22 18:18 | 30.33620 | -9.13469 | 2370 ft | 209 kts | 251° |
| 2026-04-22 18:18 | 30.33225 | -9.15034 | 2130 ft | 198 kts | 255° |
| 2026-04-22 18:19 | 30.32895 | -9.16553 | 1775 ft | 189 kts | 255° |
| 2026-04-22 18:19 | 30.32717 | -9.17470 | 1836 ft | 164 kts | 256° |
| 2026-04-22 18:19 | 30.32505 | -9.18715 | 1627 ft | 151 kts | 259° |
| 2026-04-22 18:19 | 30.32378 | -9.19910 | 1611 ft | 150 kts | 259° |
| 2026-04-22 18:20 | 30.32188 | -9.21103 | 1620 ft | 153 kts | 255° |
| 2026-04-22 18:20 | 30.31962 | -9.22285 | 1674 ft | 145 kts | 262° |
| 2026-04-22 18:20 | 30.31970 | -9.23446 | 2297 ft | 146 kts | 268° |
| 2026-04-22 18:20 | 30.31993 | -9.24680 | 2621 ft | 158 kts | 272° |
| 2026-04-22 18:21 | 30.32051 | -9.25934 | 2509 ft | 152 kts | 270° |
| 2026-04-22 18:21 | 30.32062 | -9.27078 | 2343 ft | 133 kts | 265° |
| 2026-04-22 18:21 | 30.32052 | -9.28116 | 2137 ft | 126 kts | 265° |
| 2026-04-22 18:21 | 30.32041 | -9.29112 | 1850 ft | 122 kts | 264° |
| 2026-04-22 18:22 | 30.32009 | -9.30076 | 1581 ft | 120 kts | 265° |
| 2026-04-22 18:22 | 30.32026 | -9.31060 | 1222 ft | 121 kts | 264° |
| 2026-04-22 18:22 | 30.32043 | -9.32000 | 1338 ft | 115 kts | 264° |
| 2026-04-22 18:22 | 30.32047 | -9.32947 | 1504 ft | 121 kts | 264° |
| 2026-04-22 18:23 | 30.32095 | -9.33927 | 1219 ft | 122 kts | 270° |
| 2026-04-22 18:23 | 30.32127 | -9.34905 | 1075 ft | 121 kts | 264° |
| 2026-04-22 18:23 | 30.32119 | -9.35870 | 782 ft | 119 kts | 265° |
| 2026-04-22 18:24 | 30.32213 | -9.37824 | 697 ft | 128 kts | 270° |
| 2026-04-22 18:24 | 30.32226 | -9.38813 | 505 ft | 122 kts | 265° |
| 2026-04-22 18:24 | 30.32246 | -9.40507 | 234 ft | 61 kts | 270° |
| 2026-04-22 18:25 | 30.32255 | -9.40903 | 234 ft | 46 kts | 274° |
| 2026-04-22 18:25 | 30.32302 | -9.41214 | 236 ft | 38 kts | 292° |
| 2026-04-22 18:25 | 30.32403 | -9.41423 | 234 ft | 14 kts | 297° |
| 2026-04-22 18:26 | 30.32444 | -9.41476 | 236 ft | 2 kts | 324° |
| 2026-04-22 18:26 | 30.32507 | -9.41517 | 234 ft | 19 kts | 349° |
| 2026-04-22 18:26 | 30.32666 | -9.41517 | 234 ft | 25 kts | 0° |
| 2026-04-22 18:26 | 30.32812 | -9.41453 | 236 ft | 24 kts | 82° |
| 2026-04-22 18:27 | 30.32813 | -9.41250 | 234 ft | 27 kts | 91° |
| 2026-04-22 18:27 | 30.32810 | -9.41076 | 235 ft | 10 kts | 84° |
| 2026-04-22 18:27 | 30.32856 | -9.41047 | 234 ft | 7 kts | 2° |
| 2026-04-22 18:27 | 30.32870 | -9.41047 | 234 ft | 1 kts | 360° |
| 2026-04-22 18:28 | 30.32873 | -9.41047 | 234 ft | 0 kts | 0° |
| 2026-04-22 18:28 | 30.32876 | -9.41047 | 234 ft | 0 kts | 0° |